createdAt,value
2023-10-06T00:01:28.538Z,69.55
2023-10-06T00:04:53.144Z,69.91
2023-10-06T00:08:21.298Z,69.73
2023-10-06T00:11:47.244Z,68.81
2023-10-06T00:15:24.090Z,68.38
2023-10-06T00:18:47.672Z,67.84
2023-10-06T00:22:19.219Z,67.84
2023-10-06T00:25:43.763Z,67.78
2023-10-06T00:29:11.354Z,67.95
2023-10-06T00:32:33.437Z,67.66
2023-10-06T00:35:58.271Z,67.60
2023-10-06T00:39:24.506Z,67.82
2023-10-06T00:43:00.869Z,67.89
2023-10-06T00:46:27.133Z,67.92
2023-10-06T00:49:48.997Z,67.97
2023-10-06T00:53:16.630Z,68.15
2023-10-06T00:56:43.674Z,68.87
2023-10-06T01:00:37.725Z,69.20
2023-10-06T01:04:09.468Z,69.50
2023-10-06T01:07:31.162Z,69.70
2023-10-06T01:11:07.906Z,70.23
2023-10-06T01:14:30.264Z,70.37
2023-10-06T01:17:56.525Z,70.42
2023-10-06T01:21:19.082Z,70.55
2023-10-06T01:24:41.183Z,70.64
2023-10-06T01:28:06.841Z,70.83
2023-10-06T01:31:30.932Z,71.00
2023-10-06T01:34:54.678Z,71.33
2023-10-06T01:38:23.926Z,71.45
2023-10-06T01:41:48.718Z,71.37
2023-10-06T01:45:15.350Z,70.64
2023-10-06T01:48:40.079Z,70.51
2023-10-06T01:52:09.444Z,70.08
2023-10-06T01:55:37.902Z,69.56
2023-10-06T01:59:02.858Z,69.49
2023-10-06T02:02:25.713Z,69.02
2023-10-06T02:05:47.362Z,68.79
2023-10-06T02:09:20.744Z,68.34
2023-10-06T02:12:43.193Z,68.51
2023-10-06T02:16:05.852Z,68.39
2023-10-06T02:19:30.056Z,68.19
2023-10-06T02:22:59.367Z,68.50
2023-10-06T02:26:24.783Z,68.57
2023-10-06T02:29:46.766Z,68.61
2023-10-06T02:33:08.437Z,68.98
2023-10-06T02:36:32.218Z,69.75
2023-10-06T02:39:54.269Z,70.04
2023-10-06T02:43:21.796Z,70.24
2023-10-06T02:46:46.694Z,70.68
2023-10-06T02:50:13.965Z,70.41
2023-10-06T02:53:37.671Z,70.15
2023-10-06T02:56:59.346Z,69.86
2023-10-06T03:00:26.984Z,69.72
2023-10-06T03:03:52.649Z,70.22
2023-10-06T03:07:16.411Z,70.21
2023-10-06T03:10:45.425Z,70.39
2023-10-06T03:14:08.801Z,70.57
2023-10-06T03:17:31.842Z,70.48
2023-10-06T03:21:05.320Z,70.42
2023-10-06T03:24:32.755Z,69.85
2023-10-06T03:27:55.652Z,69.97
2023-10-06T03:31:20.114Z,69.94
2023-10-06T03:34:44.765Z,70.28
2023-10-06T03:38:14.402Z,70.37
2023-10-06T03:41:38.398Z,70.20
2023-10-06T03:45:08.722Z,70.41
2023-10-06T03:48:30.894Z,70.12
2023-10-06T03:51:56.926Z,69.78
2023-10-06T03:55:21.001Z,69.55
2023-10-06T03:58:46.207Z,69.35
2023-10-06T04:02:09.951Z,69.18
2023-10-06T04:05:38.436Z,69.32
2023-10-06T04:09:00.765Z,69.34
2023-10-06T04:12:24.693Z,69.50
2023-10-06T04:15:53.549Z,69.17
2023-10-06T04:19:16.792Z,69.20
2023-10-06T04:22:40.864Z,69.22
2023-10-06T04:26:02.737Z,69.34
2023-10-06T04:29:27.151Z,69.27
2023-10-06T04:32:51.015Z,69.56
2023-10-06T04:36:21.971Z,69.48
2023-10-06T04:39:44.132Z,69.68
2023-10-06T04:43:08.755Z,69.68
2023-10-06T04:46:30.456Z,70.06
2023-10-06T04:49:54.046Z,70.14
2023-10-06T04:53:18.176Z,69.76
2023-10-06T04:56:42.250Z,69.42
2023-10-06T05:00:07.646Z,68.86
2023-10-06T05:03:47.738Z,69.03
2023-10-06T05:07:12.031Z,68.76
2023-10-06T05:10:34.077Z,68.86
2023-10-06T05:13:56.729Z,68.75
2023-10-06T05:17:23.509Z,68.77
2023-10-06T05:20:45.262Z,68.57
2023-10-06T05:24:09.889Z,68.61
2023-10-06T05:27:31.645Z,68.69
2023-10-06T05:30:55.699Z,68.32
2023-10-06T05:34:18.830Z,68.17
2023-10-06T05:37:44.459Z,68.75
2023-10-06T05:41:13.626Z,68.68
2023-10-06T05:44:38.400Z,68.70
2023-10-06T05:48:00.304Z,68.77
2023-10-06T05:51:24.343Z,68.79
2023-10-06T05:54:46.108Z,68.80
2023-10-06T05:58:27.355Z,68.78
2023-10-06T06:01:57.717Z,68.62
2023-10-06T06:05:19.392Z,68.44
2023-10-06T06:08:49.488Z,68.31
2023-10-06T06:12:12.987Z,68.41
2023-10-06T06:15:36.514Z,68.14
2023-10-06T06:18:58.126Z,67.84
2023-10-06T06:22:20.517Z,67.96
2023-10-06T06:25:43.511Z,68.12
2023-10-06T06:29:09.985Z,67.81
2023-10-06T06:32:31.962Z,67.99
2023-10-06T06:35:53.676Z,67.41
2023-10-06T06:39:15.492Z,67.44
2023-10-06T06:42:37.850Z,67.40
2023-10-06T06:46:02.268Z,68.06
2023-10-06T06:49:24.790Z,67.92
2023-10-06T06:52:50.882Z,67.36
2023-10-06T06:56:12.834Z,67.27
2023-10-06T06:59:40.291Z,67.11
2023-10-06T07:03:02.484Z,67.32
2023-10-06T07:06:26.363Z,67.41
2023-10-06T07:09:48.165Z,66.77
2023-10-06T07:13:11.968Z,64.83
2023-10-06T07:16:35.060Z,64.02
2023-10-06T07:20:02.075Z,64.61
2023-10-06T07:23:26.124Z,62.78
2023-10-06T07:26:47.745Z,62.17
2023-10-06T07:30:12.198Z,61.25
2023-10-06T07:33:33.831Z,58.92
2023-10-06T07:36:55.512Z,56.78
2023-10-06T07:40:22.553Z,56.45
2023-10-06T07:43:47.435Z,54.60
2023-10-06T07:47:11.976Z,51.85
2023-10-06T07:50:39.692Z,51.20
2023-10-06T07:54:07.849Z,49.35
2023-10-06T07:57:34.124Z,49.81
2023-10-06T08:00:57.987Z,48.44
2023-10-06T08:04:24.079Z,48.46
2023-10-06T08:07:45.979Z,49.05
2023-10-06T08:11:10.805Z,48.79
2023-10-06T08:14:33.597Z,48.48
2023-10-06T08:17:55.265Z,48.65
2023-10-06T08:21:16.873Z,49.47
2023-10-06T08:24:41.553Z,49.77
2023-10-06T08:28:08.446Z,49.44
2023-10-06T08:31:30.566Z,48.97
2023-10-06T08:34:54.622Z,48.23
2023-10-06T08:38:18.492Z,47.56
2023-10-06T08:41:48.654Z,48.76
2023-10-06T08:45:14.982Z,49.07
2023-10-06T08:48:37.386Z,48.04
2023-10-06T08:52:02.653Z,48.67
2023-10-06T08:55:28.945Z,48.05
2023-10-06T08:58:54.681Z,47.94
2023-10-06T09:02:18.256Z,46.46
2023-10-06T09:05:40.797Z,44.30
2023-10-06T09:09:03.417Z,45.04
2023-10-06T09:12:26.828Z,44.67
2023-10-06T09:16:04.077Z,45.43
2023-10-06T09:19:29.069Z,44.68
2023-10-06T09:22:53.052Z,43.62
2023-10-06T09:26:32.591Z,45.46
2023-10-06T09:30:02.042Z,46.61
2023-10-06T09:33:39.268Z,45.71
2023-10-06T09:37:20.778Z,46.46
2023-10-06T09:40:48.639Z,45.99
2023-10-06T09:44:14.544Z,45.54
2023-10-06T09:47:41.564Z,45.94
2023-10-06T09:51:11.050Z,43.92
2023-10-06T09:54:34.247Z,42.23
2023-10-06T09:57:56.910Z,41.76
2023-10-06T10:01:25.689Z,40.04
2023-10-06T10:04:48.084Z,41.76
2023-10-06T10:08:15.026Z,40.01
2023-10-06T10:11:40.641Z,37.56
2023-10-06T10:15:23.031Z,38.35
2023-10-06T10:18:58.564Z,38.08
2023-10-06T10:22:22.579Z,37.03
2023-10-06T10:25:45.254Z,35.81
2023-10-06T10:29:19.075Z,35.35
2023-10-06T10:32:53.166Z,34.57
2023-10-06T10:36:18.741Z,34.21
2023-10-06T10:39:50.841Z,33.35
2023-10-06T10:43:13.893Z,34.34
2023-10-06T10:46:43.722Z,37.48
2023-10-06T10:50:08.398Z,38.37
2023-10-06T10:53:32.924Z,38.49
2023-10-06T10:57:02.801Z,38.24
2023-10-06T11:00:27.219Z,37.67
2023-10-06T11:04:19.770Z,35.87
2023-10-06T11:07:43.221Z,34.57
2023-10-06T11:11:11.553Z,34.06
2023-10-06T11:14:44.531Z,33.02
2023-10-06T11:18:07.519Z,33.42
2023-10-06T11:21:29.292Z,33.09
2023-10-06T11:24:58.514Z,33.51
2023-10-06T11:28:21.164Z,34.25
2023-10-06T11:31:44.301Z,32.47
2023-10-06T11:35:06.172Z,34.83
2023-10-06T11:38:29.101Z,35.59
2023-10-06T11:42:13.453Z,35.78
2023-10-06T11:45:38.197Z,33.78
2023-10-06T11:49:11.253Z,33.08
2023-10-06T11:52:33.511Z,34.53
2023-10-06T11:56:12.078Z,33.50
2023-10-06T11:59:36.487Z,35.34
2023-10-06T12:03:01.817Z,36.86
2023-10-06T12:06:25.024Z,33.78
2023-10-06T12:09:49.961Z,33.24
2023-10-06T12:13:13.894Z,32.62
2023-10-06T12:16:37.934Z,35.30
2023-10-06T12:20:01.715Z,35.78
2023-10-06T12:23:25.170Z,35.53
2023-10-06T12:26:49.414Z,33.92
2023-10-06T12:30:15.599Z,33.23
2023-10-06T12:33:42.970Z,34.00
2023-10-06T12:37:08.653Z,34.08
2023-10-06T12:40:31.140Z,36.72
2023-10-06T12:43:55.008Z,38.06
2023-10-06T12:47:16.721Z,37.52
2023-10-06T12:50:46.182Z,38.13
2023-10-06T12:54:10.841Z,38.68
2023-10-06T12:57:36.094Z,38.82
2023-10-06T13:00:57.989Z,38.67
2023-10-06T13:04:24.045Z,38.05
2023-10-06T13:07:49.848Z,38.78
2023-10-06T13:11:19.355Z,38.24
2023-10-06T13:14:43.851Z,38.53
2023-10-06T13:18:09.213Z,39.08
2023-10-06T13:21:38.024Z,38.06
2023-10-06T13:24:59.957Z,38.72
2023-10-06T13:28:22.102Z,39.28
2023-10-06T13:31:43.795Z,39.48
2023-10-06T13:35:12.656Z,40.44
2023-10-06T13:38:36.887Z,39.63
2023-10-06T13:42:02.996Z,39.84
2023-10-06T13:45:26.503Z,39.98
2023-10-06T13:48:48.358Z,39.95
2023-10-06T13:52:11.249Z,40.24
2023-10-06T13:55:33.573Z,40.65
2023-10-06T13:58:57.850Z,41.03
2023-10-06T14:02:19.610Z,41.53
2023-10-06T14:05:43.665Z,40.81
2023-10-06T14:09:07.175Z,41.48
2023-10-06T14:12:31.272Z,42.72
2023-10-06T14:15:57.204Z,43.27
2023-10-06T14:19:22.154Z,42.98
2023-10-06T14:22:43.762Z,43.02
2023-10-06T14:26:10.610Z,42.01
2023-10-06T14:29:34.907Z,43.17
2023-10-06T14:33:13.658Z,44.60
2023-10-06T14:36:39.185Z,41.76
2023-10-06T14:40:21.474Z,42.73
2023-10-06T14:44:11.817Z,45.33
2023-10-06T14:47:34.268Z,45.46
2023-10-06T14:51:06.021Z,44.71
2023-10-06T14:54:34.175Z,44.37
2023-10-06T14:57:56.438Z,42.16
2023-10-06T15:01:21.031Z,42.93
2023-10-06T15:04:42.902Z,43.58
2023-10-06T15:08:05.340Z,43.44
2023-10-06T15:11:29.747Z,44.58
2023-10-06T15:14:56.219Z,45.03
2023-10-06T15:18:19.966Z,44.56
2023-10-06T15:21:46.022Z,44.81
2023-10-06T15:25:11.967Z,45.64
2023-10-06T15:28:39.315Z,44.91
2023-10-06T15:32:05.216Z,44.44
2023-10-06T15:35:37.221Z,42.95
2023-10-06T15:39:01.996Z,43.41
2023-10-06T15:42:23.720Z,45.04
2023-10-06T15:45:58.093Z,45.49
2023-10-06T15:49:20.706Z,44.77
2023-10-06T15:52:47.824Z,45.32
2023-10-06T15:56:14.888Z,45.47
2023-10-06T15:59:39.109Z,45.79
2023-10-06T16:03:03.897Z,46.59
2023-10-06T16:06:33.315Z,47.50
2023-10-06T16:09:57.419Z,48.35
2023-10-06T16:13:19.803Z,48.56
2023-10-06T16:16:41.490Z,49.23
2023-10-06T16:20:07.464Z,49.68
2023-10-06T16:23:29.505Z,50.13
2023-10-06T16:26:53.720Z,50.68
2023-10-06T16:30:17.267Z,51.50
2023-10-06T16:33:44.427Z,51.87
2023-10-06T16:37:09.733Z,52.14
2023-10-06T16:40:35.029Z,52.71
2023-10-06T16:43:57.493Z,53.14
2023-10-06T16:47:19.285Z,53.67
2023-10-06T16:50:44.212Z,54.07
2023-10-06T16:54:06.125Z,54.58
2023-10-06T16:57:27.786Z,55.01
2023-10-06T17:00:49.499Z,55.39
2023-10-06T17:04:15.742Z,55.88
2023-10-06T17:07:37.723Z,56.62
2023-10-06T17:11:15.611Z,57.15
2023-10-06T17:14:41.533Z,57.12
2023-10-06T17:18:03.318Z,57.69
2023-10-06T17:21:27.698Z,58.39
2023-10-06T17:24:54.564Z,58.78
2023-10-06T17:28:18.472Z,59.66
2023-10-06T17:31:42.468Z,59.45
2023-10-06T17:35:05.158Z,59.85
2023-10-06T17:38:29.358Z,60.07
2023-10-06T17:41:53.655Z,60.42
2023-10-06T17:45:20.152Z,61.25
2023-10-06T17:48:49.305Z,61.21
2023-10-06T17:52:11.754Z,61.09
2023-10-06T17:55:35.029Z,61.29
2023-10-06T17:58:56.822Z,61.69
2023-10-06T18:02:19.719Z,62.28
2023-10-06T18:05:46.025Z,62.66
2023-10-06T18:09:10.084Z,62.36
2023-10-06T18:12:31.876Z,63.23
2023-10-06T18:15:55.982Z,63.43
2023-10-06T18:19:21.395Z,63.29
2023-10-06T18:22:43.182Z,63.85
2023-10-06T18:26:16.215Z,63.93
2023-10-06T18:29:43.095Z,65.16
2023-10-06T18:33:07.390Z,65.52
2023-10-06T18:36:32.016Z,65.59
2023-10-06T18:39:53.709Z,65.01
2023-10-06T18:43:15.435Z,65.14
2023-10-06T18:46:40.485Z,65.80
2023-10-06T18:50:02.746Z,65.92
2023-10-06T18:53:29.736Z,66.31
2023-10-06T18:56:51.441Z,66.32
2023-10-06T19:00:13.917Z,67.45
2023-10-06T19:03:39.348Z,68.08
2023-10-06T19:07:06.209Z,70.05
2023-10-06T19:10:27.929Z,76.54
2023-10-06T19:13:50.271Z,74.30
2023-10-06T19:17:12.688Z,71.35
2023-10-06T19:20:34.410Z,66.17
2023-10-06T19:23:56.318Z,62.15
2023-10-06T19:27:18.602Z,63.08
2023-10-06T19:30:40.377Z,63.96
2023-10-06T19:34:03.093Z,64.77
2023-10-06T19:37:25.363Z,66.05
2023-10-06T19:40:52.215Z,66.80
2023-10-06T19:44:14.097Z,66.91
2023-10-06T19:47:36.637Z,67.43
2023-10-06T19:51:01.006Z,68.06
2023-10-06T19:54:25.471Z,68.16
2023-10-06T19:57:47.261Z,69.02
2023-10-06T20:01:12.542Z,69.13
2023-10-06T20:04:35.211Z,69.40
2023-10-06T20:07:57.125Z,69.56
2023-10-06T20:11:20.807Z,70.02
2023-10-06T20:14:44.780Z,70.22
2023-10-06T20:18:07.797Z,69.67
2023-10-06T20:21:31.782Z,70.17
2023-10-06T20:24:55.595Z,69.80
2023-10-06T20:28:22.064Z,70.46
2023-10-06T20:31:43.910Z,70.42
2023-10-06T20:35:05.796Z,70.10
2023-10-06T20:38:27.563Z,70.84
2023-10-06T20:41:49.288Z,71.13
2023-10-06T20:45:17.168Z,71.35
2023-10-06T20:48:41.317Z,71.04
2023-10-06T20:52:03.113Z,71.72
2023-10-06T20:55:25.448Z,71.97
2023-10-06T20:58:49.115Z,71.74
2023-10-06T21:02:14.627Z,71.21
2023-10-06T21:05:38.303Z,72.30
2023-10-06T21:09:00.330Z,72.80
2023-10-06T21:12:21.988Z,72.74
2023-10-06T21:15:45.904Z,73.16
2023-10-06T21:19:08.471Z,72.22
2023-10-06T21:22:30.231Z,72.20
2023-10-06T21:25:54.291Z,72.22
2023-10-06T21:29:18.265Z,72.46
2023-10-06T21:32:40.972Z,72.84
2023-10-06T21:36:03.202Z,72.88
2023-10-06T21:39:27.106Z,72.65
2023-10-06T21:42:51.567Z,71.97
2023-10-06T21:46:22.078Z,72.74
2023-10-06T21:49:48.572Z,72.94
2023-10-06T21:53:12.972Z,73.02
2023-10-06T21:56:35.589Z,72.46
2023-10-06T21:59:58.532Z,73.37
2023-10-06T22:03:25.192Z,72.91
2023-10-06T22:06:53.390Z,73.81
2023-10-06T22:10:15.075Z,73.52
2023-10-06T22:13:36.812Z,74.66
2023-10-06T22:17:00.811Z,75.74
2023-10-06T22:20:23.244Z,76.63
2023-10-06T22:23:47.236Z,76.32
2023-10-06T22:27:11.326Z,77.96
2023-10-06T22:30:38.043Z,77.60
2023-10-06T22:33:59.900Z,76.42
2023-10-06T22:37:26.911Z,75.63
2023-10-06T22:40:48.706Z,74.31
2023-10-06T22:44:10.510Z,74.22
2023-10-06T22:47:34.036Z,73.74
2023-10-06T22:50:57.686Z,73.69
2023-10-06T22:54:19.319Z,73.81
2023-10-06T22:57:44.060Z,73.67
2023-10-06T23:01:06.713Z,73.93
2023-10-06T23:04:28.546Z,73.83
2023-10-06T23:07:53.339Z,74.10
2023-10-06T23:11:17.036Z,73.68
2023-10-06T23:14:43.592Z,73.87
2023-10-06T23:18:12.544Z,73.76
2023-10-06T23:21:36.485Z,73.56
2023-10-06T23:25:03.838Z,73.62
2023-10-06T23:28:25.603Z,73.63
2023-10-06T23:31:47.322Z,73.38
2023-10-06T23:35:09.430Z,74.21
2023-10-06T23:38:31.070Z,74.18
2023-10-06T23:41:55.119Z,74.23
2023-10-06T23:45:30.216Z,74.08
2023-10-06T23:48:54.525Z,73.92
2023-10-06T23:52:22.802Z,73.57
2023-10-06T23:55:44.498Z,74.25
2023-10-06T23:59:16.361Z,74.77
